Strona główna
METAR-TAF:

METAR-TAF

Lotnisko :

Greater Kankakee Airport

Kankakee, Illinois, Stany Zjednoczone

Szerokość geograficzna: 41-04-17N, Długość geograficzna: 087-50-47W, wysokość: 192 m

Aktualna obserwacja pogody

Raport powstał 16 minut temu, godzina 09:55 UTC
Wiatr 4 kt od południowy wschód
Temperatura 25°C
Wilgotność 94%
Ciśnienie 1014 hPa
Widzialność: 16.1 km
Przerywane chmury na wysokości 8000 ft

METAR: KIKK 200955Z AUTO 13004KT 10SM BKN080 25/24 A2993 RMK AO2 T02510241

czas: 05:11 (10:11 UTC)


TAF: brakujący

Obserwacja i prognoza pogody dla ponad 4000 lotnisk (raport METAR i TAF).

Dostępne stacje oznaczono żółtymi i czerwonymi punktami na mapie.

Najedź kursorem aby zobaczyć nazwę stacji.

Kliknij aby zobaczyć obserwacje i prognozy pogody.

Aby zmienić mapę: kliknij na zielony przycisk z czarnym krzyżykiem, aby powiększyć; na zielony przycisk z myślnikiem, aby pomniejszyć; na zielone strzałki, aby przejść do map sąsiednich.


METAR-TAF: